createdAt,value
2019-02-17T00:00:46.195Z,95889.53
2019-02-17T00:03:19.398Z,95887.59
2019-02-17T00:05:52.440Z,95896.50
2019-02-17T00:08:25.539Z,95893.38
2019-02-17T00:10:58.476Z,95893.39
2019-02-17T00:13:31.380Z,95897.28
2019-02-17T00:16:04.394Z,95895.19
2019-02-17T00:18:39.213Z,95893.06
2019-02-17T00:21:12.322Z,95898.88
2019-02-17T00:23:45.220Z,95895.16
2019-02-17T00:26:18.137Z,95893.67
2019-02-17T00:28:59.123Z,95895.29
2019-02-17T00:31:25.825Z,95892.86
2019-02-17T00:33:58.697Z,95897.39
2019-02-17T00:36:31.663Z,95892.87
2019-02-17T00:39:06.084Z,95893.67
2019-02-17T00:41:39.183Z,95893.03
2019-02-17T00:44:11.986Z,95890.45
2019-02-17T00:46:45.134Z,95895.13
2019-02-17T00:49:18.243Z,95888.17
2019-02-17T00:51:51.147Z,95888.32
2019-02-17T00:54:24.371Z,95885.22
2019-02-17T00:56:57.736Z,95880.20
2019-02-17T00:59:30.489Z,95875.03
2019-02-17T01:02:03.978Z,95875.69
2019-02-17T01:04:37.094Z,95867.89
2019-02-17T01:07:10.225Z,95870.16
2019-02-17T01:09:43.206Z,95868.55
2019-02-17T01:12:16.299Z,95866.29
2019-02-17T01:14:49.142Z,95869.98
2019-02-17T01:17:22.164Z,95865.95
2019-02-17T01:19:56.065Z,95862.59
2019-02-17T01:22:29.164Z,95857.09
2019-02-17T01:25:02.303Z,95859.20
2019-02-17T01:27:35.271Z,95855.01
2019-02-17T01:30:09.310Z,95855.14
2019-02-17T01:32:42.216Z,95850.30
2019-02-17T01:35:15.259Z,95846.44
2019-02-17T01:37:48.178Z,95847.89
2019-02-17T01:40:21.213Z,95846.73
2019-02-17T01:42:54.136Z,95842.72
2019-02-17T01:45:26.943Z,95850.27
2019-02-17T01:47:59.855Z,95842.98
2019-02-17T01:50:32.731Z,95844.45
2019-02-17T01:53:05.751Z,95843.62
2019-02-17T01:55:38.795Z,95842.34
2019-02-17T01:58:11.945Z,95843.31
2019-02-17T02:00:45.202Z,95843.80
2019-02-17T02:03:18.759Z,95837.14
2019-02-17T02:05:51.773Z,95838.91
2019-02-17T02:08:24.577Z,95841.69
2019-02-17T02:10:57.415Z,95840.20
2019-02-17T02:13:30.505Z,95836.80
2019-02-17T02:16:03.507Z,95836.12
2019-02-17T02:18:36.424Z,95837.45
2019-02-17T02:21:10.306Z,95838.09
2019-02-17T02:23:43.135Z,95838.11
2019-02-17T02:26:15.977Z,95838.26
2019-02-17T02:28:49.123Z,95834.03
2019-02-17T02:31:22.200Z,95829.49
2019-02-17T02:33:55.305Z,95828.34
2019-02-17T02:36:28.149Z,95827.23
2019-02-17T02:39:01.135Z,95830.77
2019-02-17T02:41:35.124Z,95828.55
2019-02-17T02:44:09.535Z,95827.37
2019-02-17T02:46:42.650Z,95829.20
2019-02-17T02:49:15.433Z,95830.66
2019-02-17T02:51:48.463Z,95830.66
2019-02-17T02:54:21.447Z,95830.37
2019-02-17T02:56:54.628Z,95831.61
2019-02-17T02:59:27.853Z,95826.72
2019-02-17T03:02:00.853Z,95829.31
2019-02-17T03:04:35.627Z,95829.39
2019-02-17T03:07:15.157Z,95824.09
2019-02-17T03:09:48.242Z,95822.93
2019-02-17T03:12:22.111Z,95820.69
2019-02-17T03:14:56.374Z,95813.12
2019-02-17T03:17:29.431Z,95813.53
2019-02-17T03:20:02.326Z,95815.27
2019-02-17T03:22:35.207Z,95805.41
2019-02-17T03:25:08.785Z,95808.80
2019-02-17T03:27:43.455Z,95807.33
2019-02-17T03:30:16.521Z,95815.29
2019-02-17T03:32:49.536Z,95822.94
2019-02-17T03:35:22.543Z,95823.28
2019-02-17T03:37:55.447Z,95821.20
2019-02-17T03:40:28.322Z,95821.63
2019-02-17T03:43:01.594Z,95824.84
2019-02-17T03:45:34.555Z,95818.08
2019-02-17T03:48:08.584Z,95825.30
2019-02-17T03:50:42.378Z,95818.05
2019-02-17T03:53:15.484Z,95820.28
2019-02-17T03:55:48.533Z,95818.52
2019-02-17T03:58:21.551Z,95821.41
2019-02-17T04:00:54.613Z,95823.33
2019-02-17T04:03:27.660Z,95824.61
2019-02-17T04:06:00.598Z,95823.13
2019-02-17T04:08:33.829Z,95817.04
2019-02-17T04:11:06.542Z,95817.02
2019-02-17T04:13:40.039Z,95823.16
2019-02-17T04:16:12.932Z,95823.77
2019-02-17T04:18:46.173Z,95820.20
2019-02-17T04:21:19.025Z,95824.39
2019-02-17T04:23:53.355Z,95820.34
2019-02-17T04:26:26.177Z,95822.33
2019-02-17T04:28:59.295Z,95819.30
2019-02-17T04:31:32.366Z,95814.31
2019-02-17T04:34:05.390Z,95815.08
2019-02-17T04:36:38.416Z,95821.42
2019-02-17T04:39:12.278Z,95823.94
2019-02-17T04:41:45.297Z,95824.59
2019-02-17T04:44:18.305Z,95820.59
2019-02-17T04:46:51.314Z,95820.75
2019-02-17T04:49:25.679Z,95822.82
2019-02-17T04:51:58.744Z,95820.20
2019-02-17T04:54:31.630Z,95820.67
2019-02-17T04:57:04.485Z,95828.66
2019-02-17T04:59:37.610Z,95831.59
2019-02-17T05:02:10.936Z,95829.14
2019-02-17T05:04:43.972Z,95834.80
2019-02-17T05:07:17.402Z,95830.55
2019-02-17T05:09:50.207Z,95833.80
2019-02-17T05:12:24.081Z,95838.65
2019-02-17T05:14:57.133Z,95834.73
2019-02-17T05:17:30.181Z,95833.98
2019-02-17T05:20:03.517Z,95839.48
2019-02-17T05:22:39.284Z,95841.58
2019-02-17T05:25:10.781Z,95849.00
2019-02-17T05:27:44.927Z,95851.97
2019-02-17T05:30:18.285Z,95855.77
2019-02-17T05:32:52.160Z,95859.17
2019-02-17T05:35:25.160Z,95859.58
2019-02-17T05:37:58.366Z,95863.92
2019-02-17T05:40:31.427Z,95861.83
2019-02-17T05:43:04.514Z,95863.16
2019-02-17T05:45:38.867Z,95866.18
2019-02-17T05:48:11.646Z,95863.16
2019-02-17T05:50:45.597Z,95869.98
2019-02-17T05:53:18.467Z,95868.86
2019-02-17T05:55:52.705Z,95871.72
2019-02-17T05:58:25.731Z,95871.27
2019-02-17T06:01:03.726Z,95874.58
2019-02-17T06:03:34.701Z,95874.70
2019-02-17T06:06:07.484Z,95873.83
2019-02-17T06:08:40.533Z,95867.75
2019-02-17T06:11:13.575Z,95867.39
2019-02-17T06:13:46.343Z,95869.87
2019-02-17T06:16:19.417Z,95861.05
2019-02-17T06:18:53.424Z,95861.87
2019-02-17T06:21:26.757Z,95863.48
2019-02-17T06:23:59.874Z,95868.38
2019-02-17T06:26:32.894Z,95869.17
2019-02-17T06:29:05.859Z,95871.86
2019-02-17T06:31:39.071Z,95870.83
2019-02-17T06:34:12.162Z,95866.36
2019-02-17T06:36:45.001Z,95870.30
2019-02-17T06:39:16.789Z,95873.52
2019-02-17T06:41:49.635Z,95868.93
2019-02-17T06:44:23.194Z,95865.16
2019-02-17T06:47:06.925Z,95870.49
2019-02-17T06:49:40.488Z,95869.34
2019-02-17T06:52:13.706Z,95864.28
2019-02-17T06:54:51.864Z,95870.84
2019-02-17T06:57:29.542Z,95869.44
2019-02-17T07:00:27.590Z,95865.72
2019-02-17T07:03:00.722Z,95868.92
2019-02-17T07:05:44.204Z,95863.23
2019-02-17T07:08:17.169Z,95863.42
2019-02-17T07:10:50.309Z,95859.56
2019-02-17T07:13:23.469Z,95860.52
2019-02-17T07:15:57.061Z,95866.89
2019-02-17T07:18:30.602Z,95862.45
2019-02-17T07:21:03.945Z,95864.47
2019-02-17T07:23:37.204Z,95867.54
2019-02-17T07:26:10.421Z,95867.76
2019-02-17T07:28:43.810Z,95868.80
2019-02-17T07:31:16.966Z,95863.11
2019-02-17T07:33:50.123Z,95867.33
2019-02-17T07:36:23.272Z,95863.47
2019-02-17T07:38:56.693Z,95854.13
2019-02-17T07:41:29.821Z,95863.73
2019-02-17T07:44:02.784Z,95856.53
2019-02-17T07:46:35.908Z,95857.66
2019-02-17T07:49:10.292Z,95856.28
2019-02-17T07:51:43.508Z,95859.91
2019-02-17T07:54:16.780Z,95851.22
2019-02-17T07:56:49.999Z,95853.53
2019-02-17T07:59:23.531Z,95848.67
2019-02-17T08:01:58.015Z,95851.48
2019-02-17T08:04:31.207Z,95847.88
2019-02-17T08:07:04.393Z,95845.75
2019-02-17T08:09:37.859Z,95850.52
2019-02-17T08:12:11.290Z,95844.36
2019-02-17T08:14:45.911Z,95844.08
2019-02-17T08:17:19.260Z,95844.99
2019-02-17T08:19:52.492Z,95849.22
2019-02-17T08:22:25.676Z,95846.01
2019-02-17T08:24:58.951Z,95848.49
2019-02-17T08:27:32.086Z,95847.61
2019-02-17T08:30:05.375Z,95840.03
2019-02-17T08:32:38.390Z,95838.13
2019-02-17T08:35:11.661Z,95837.16
2019-02-17T08:37:45.212Z,95835.27
2019-02-17T08:40:18.607Z,95832.59
2019-02-17T08:42:51.821Z,95834.00
2019-02-17T08:45:24.915Z,95828.85
2019-02-17T08:47:58.193Z,95832.08
2019-02-17T08:50:31.177Z,95829.39
2019-02-17T08:53:04.371Z,95820.41
2019-02-17T08:55:37.336Z,95823.33
2019-02-17T08:58:10.735Z,95828.91
2019-02-17T09:00:44.036Z,95832.53
2019-02-17T09:03:17.447Z,95827.71
2019-02-17T09:05:50.433Z,95829.65
2019-02-17T09:08:23.758Z,95822.47
2019-02-17T09:10:57.877Z,95817.99
2019-02-17T09:13:31.267Z,95822.59
2019-02-17T09:16:04.597Z,95823.03
2019-02-17T09:18:37.856Z,95821.61
2019-02-17T09:21:11.115Z,95818.82
2019-02-17T09:23:44.286Z,95823.86
2019-02-17T09:26:17.378Z,95817.70
2019-02-17T09:28:50.474Z,95809.77
2019-02-17T09:31:23.712Z,95819.64
2019-02-17T09:33:56.667Z,95811.07
2019-02-17T09:36:30.218Z,95811.49
2019-02-17T09:39:04.977Z,95811.05
2019-02-17T09:41:37.895Z,95809.02
2019-02-17T09:44:10.937Z,95810.20
2019-02-17T09:46:44.083Z,95812.42
2019-02-17T09:49:17.306Z,95807.47
2019-02-17T09:51:50.410Z,95803.33
2019-02-17T09:54:23.884Z,95796.24
2019-02-17T09:56:57.931Z,95792.39
2019-02-17T09:59:30.947Z,95791.53
2019-02-17T10:02:04.472Z,95787.50
2019-02-17T10:04:37.837Z,95786.61
2019-02-17T10:07:11.371Z,95780.08
2019-02-17T10:09:44.814Z,95777.55
2019-02-17T10:12:18.160Z,95766.86
2019-02-17T10:14:51.287Z,95761.39
2019-02-17T10:17:24.568Z,95760.98
2019-02-17T10:19:58.234Z,95753.27
2019-02-17T10:22:31.656Z,95748.23
2019-02-17T10:25:05.105Z,95746.08
2019-02-17T10:27:38.903Z,95743.56
2019-02-17T10:30:14.089Z,95743.09
2019-02-17T10:32:47.379Z,95739.70
2019-02-17T10:35:20.698Z,95736.77
2019-02-17T10:37:53.845Z,95733.51
2019-02-17T10:40:27.048Z,95728.21
2019-02-17T10:43:00.112Z,95718.48
2019-02-17T10:45:33.336Z,95715.88
2019-02-17T10:48:06.519Z,95706.84
2019-02-17T10:50:39.801Z,95706.30
2019-02-17T10:53:13.047Z,95698.25
2019-02-17T10:55:46.640Z,95696.09
2019-02-17T10:58:19.942Z,95698.20
2019-02-17T11:00:53.333Z,95700.67
2019-02-17T11:03:26.948Z,95685.20
2019-02-17T11:06:00.263Z,95681.09
2019-02-17T11:08:33.679Z,95670.58
2019-02-17T11:11:07.454Z,95683.39
2019-02-17T11:13:40.990Z,95675.61
2019-02-17T11:16:14.354Z,95671.72
2019-02-17T11:18:48.172Z,95667.52
2019-02-17T11:21:21.402Z,95662.45
2019-02-17T11:23:54.899Z,95655.61
2019-02-17T11:26:28.626Z,95651.99
2019-02-17T11:29:02.290Z,95645.30
2019-02-17T11:31:35.385Z,95642.34
2019-02-17T11:34:08.590Z,95646.10
2019-02-17T11:36:41.826Z,95635.59
2019-02-17T11:39:22.137Z,95632.03
2019-02-17T11:41:55.352Z,95622.82
2019-02-17T11:44:28.699Z,95620.19
2019-02-17T11:47:02.147Z,95618.33
2019-02-17T11:49:35.646Z,95618.69
2019-02-17T11:52:10.073Z,95609.99
2019-02-17T11:54:43.177Z,95608.35
2019-02-17T11:57:16.479Z,95608.39
2019-02-17T11:59:49.573Z,95606.86
2019-02-17T12:02:25.310Z,95596.16
2019-02-17T12:04:58.040Z,95593.16
2019-02-17T12:07:31.377Z,95591.21
2019-02-17T12:10:05.185Z,95582.41
2019-02-17T12:12:38.490Z,95581.29
2019-02-17T12:15:12.887Z,95579.77
2019-02-17T12:17:46.254Z,95576.03
2019-02-17T12:20:52.180Z,95566.83
2019-02-17T12:23:35.336Z,95564.92
2019-02-17T12:26:13.867Z,95561.03
2019-02-17T12:29:00.741Z,95557.03
2019-02-17T12:31:36.879Z,95549.58
2019-02-17T12:34:09.870Z,95546.44
2019-02-17T12:36:43.183Z,95551.54
2019-02-17T12:39:16.221Z,95546.27
2019-02-17T12:41:49.563Z,95542.50
2019-02-17T12:44:23.467Z,95536.12
2019-02-17T12:46:56.552Z,95531.20
2019-02-17T12:49:29.774Z,95521.91
2019-02-17T12:52:03.221Z,95519.09
2019-02-17T12:54:36.851Z,95523.20
2019-02-17T12:57:10.019Z,95517.03
2019-02-17T12:59:43.310Z,95515.50
2019-02-17T13:02:16.508Z,95509.13
2019-02-17T13:04:49.847Z,95509.45
2019-02-17T13:07:23.018Z,95512.52
2019-02-17T13:09:56.155Z,95507.98
2019-02-17T13:12:29.712Z,95511.50
2019-02-17T13:15:03.307Z,95502.56
2019-02-17T13:17:36.856Z,95504.13
2019-02-17T13:20:12.419Z,95502.60
2019-02-17T13:22:45.777Z,95498.59
2019-02-17T13:25:19.384Z,95501.20
2019-02-17T13:27:52.785Z,95501.39
2019-02-17T13:30:29.153Z,95501.50
2019-02-17T13:33:02.043Z,95501.11
2019-02-17T13:35:35.370Z,95501.03
2019-02-17T13:38:08.625Z,95494.46
2019-02-17T13:40:42.135Z,95497.64
2019-02-17T13:43:15.897Z,95498.67
2019-02-17T13:45:49.307Z,95497.86
2019-02-17T13:48:22.997Z,95484.86
2019-02-17T13:50:56.302Z,95481.85
2019-02-17T13:53:30.097Z,95485.18
2019-02-17T13:56:03.698Z,95486.53
2019-02-17T13:58:38.882Z,95486.09
2019-02-17T14:01:14.373Z,95480.80
2019-02-17T14:03:49.290Z,95478.61
2019-02-17T14:06:23.517Z,95476.25
2019-02-17T14:08:56.814Z,95475.36
2019-02-17T14:11:30.423Z,95473.98
2019-02-17T14:14:03.966Z,95474.37
2019-02-17T14:16:37.501Z,95473.28
2019-02-17T14:19:13.621Z,95476.75
2019-02-17T14:21:46.359Z,95474.83
2019-02-17T14:24:22.149Z,95476.70
2019-02-17T14:26:55.779Z,95470.66
2019-02-17T14:29:29.090Z,95475.23
2019-02-17T14:32:03.584Z,95472.05
2019-02-17T14:34:37.072Z,95472.19
2019-02-17T14:37:10.470Z,95473.24
2019-02-17T14:39:44.389Z,95466.47
2019-02-17T14:42:17.780Z,95465.64
2019-02-17T14:44:51.576Z,95466.34
2019-02-17T14:47:27.113Z,95465.73
2019-02-17T14:50:05.933Z,95465.78
2019-02-17T14:52:42.907Z,95461.48
2019-02-17T14:55:16.556Z,95463.75
2019-02-17T14:57:50.554Z,95461.21
2019-02-17T15:00:26.194Z,95459.05
2019-02-17T15:03:00.094Z,95465.75
2019-02-17T15:05:34.263Z,95462.99
2019-02-17T15:08:09.601Z,95460.34
2019-02-17T15:10:43.085Z,95459.86
2019-02-17T15:13:16.399Z,95458.42
2019-02-17T15:15:54.721Z,95460.97
2019-02-17T15:18:31.802Z,95459.17
2019-02-17T15:21:06.317Z,95464.52
2019-02-17T15:23:46.280Z,95464.26
2019-02-17T15:26:20.293Z,95467.11
2019-02-17T15:28:55.463Z,95471.13
2019-02-17T15:31:31.081Z,95466.34
2019-02-17T15:34:04.696Z,95465.02
2019-02-17T15:36:38.666Z,95467.19
2019-02-17T15:39:12.747Z,95461.62
2019-02-17T15:41:46.365Z,95471.97
2019-02-17T15:44:19.878Z,95469.94
2019-02-17T15:46:56.791Z,95473.48
2019-02-17T15:49:33.285Z,95475.64
2019-02-17T15:52:06.806Z,95478.33
2019-02-17T15:54:40.076Z,95490.78
2019-02-17T15:57:14.428Z,95491.59
2019-02-17T15:59:52.146Z,95495.48
2019-02-17T16:02:26.546Z,95492.73
2019-02-17T16:05:00.309Z,95501.97
2019-02-17T16:07:33.767Z,95496.86
2019-02-17T16:10:08.206Z,95494.39
2019-02-17T16:12:44.161Z,95496.37
2019-02-17T16:15:18.165Z,95498.22
2019-02-17T16:17:55.561Z,95507.70
2019-02-17T16:20:29.386Z,95509.58
2019-02-17T16:23:04.014Z,95511.81
2019-02-17T16:25:38.690Z,95506.92
2019-02-17T16:28:12.064Z,95515.73
2019-02-17T16:30:45.580Z,95520.06
2019-02-17T16:33:18.777Z,95517.41
2019-02-17T16:35:52.028Z,95520.47
2019-02-17T16:38:25.580Z,95524.53
2019-02-17T16:41:03.038Z,95522.02
2019-02-17T16:43:36.886Z,95529.09
2019-02-17T16:46:16.055Z,95530.52
2019-02-17T16:48:52.892Z,95525.36
2019-02-17T16:51:26.519Z,95528.21
2019-02-17T16:54:03.260Z,95534.09
2019-02-17T16:56:38.110Z,95537.39
2019-02-17T16:59:11.528Z,95536.61
2019-02-17T17:01:45.182Z,95542.77
2019-02-17T17:04:20.532Z,95537.61
2019-02-17T17:06:53.650Z,95539.58
2019-02-17T17:09:27.245Z,95549.95
2019-02-17T17:12:00.876Z,95545.35
2019-02-17T17:14:34.709Z,95550.14
2019-02-17T17:17:11.146Z,95546.49
2019-02-17T17:19:44.398Z,95549.59
2019-02-17T17:22:18.106Z,95545.97
2019-02-17T17:24:51.559Z,95550.19
2019-02-17T17:27:25.486Z,95554.95
2019-02-17T17:29:59.307Z,95549.05
2019-02-17T17:32:32.932Z,95550.97
2019-02-17T17:35:07.380Z,95553.32
2019-02-17T17:37:40.904Z,95556.32
2019-02-17T17:40:18.977Z,95555.77
2019-02-17T17:42:53.460Z,95557.16
2019-02-17T17:45:27.050Z,95560.51
2019-02-17T17:48:00.300Z,95561.24
2019-02-17T17:50:38.452Z,95560.83
2019-02-17T17:53:13.627Z,95558.23
2019-02-17T17:55:47.313Z,95569.17
2019-02-17T17:58:23.910Z,95564.77
2019-02-17T18:00:57.690Z,95567.76
2019-02-17T18:03:31.097Z,95567.66
2019-02-17T18:06:04.580Z,95564.92
2019-02-17T18:08:38.280Z,95568.16
2019-02-17T18:11:12.166Z,95562.33
2019-02-17T18:13:45.907Z,95564.12
2019-02-17T18:16:22.921Z,95570.01
2019-02-17T18:19:01.673Z,95567.59
2019-02-17T18:21:35.384Z,95568.65
2019-02-17T18:24:09.342Z,95569.92
2019-02-17T18:26:43.329Z,95569.89
2019-02-17T18:29:18.308Z,95571.70
2019-02-17T18:31:54.810Z,95570.59
2019-02-17T18:34:28.011Z,95566.28
2019-02-17T18:37:01.617Z,95565.89
2019-02-17T18:39:34.870Z,95565.59
2019-02-17T18:42:08.711Z,95572.27
2019-02-17T18:44:41.979Z,95573.73
2019-02-17T18:47:15.484Z,95572.30
2019-02-17T18:49:48.936Z,95577.06
2019-02-17T18:52:22.501Z,95568.62
2019-02-17T18:54:57.483Z,95570.38
2019-02-17T18:57:30.945Z,95577.43
2019-02-17T19:00:04.613Z,95575.01
2019-02-17T19:02:38.367Z,95572.52
2019-02-17T19:05:12.316Z,95573.42
2019-02-17T19:07:45.874Z,95573.55
2019-02-17T19:10:19.326Z,95579.44
2019-02-17T19:12:53.432Z,95582.78
2019-02-17T19:15:27.183Z,95578.25
2019-02-17T19:18:00.771Z,95584.03
2019-02-17T19:20:34.514Z,95586.58
2019-02-17T19:23:10.402Z,95587.61
2019-02-17T19:25:43.804Z,95588.64
2019-02-17T19:28:17.416Z,95587.70
2019-02-17T19:30:52.875Z,95588.84
2019-02-17T19:33:26.461Z,95586.69
2019-02-17T19:35:59.707Z,95589.39
2019-02-17T19:38:33.149Z,95587.37
2019-02-17T19:41:06.409Z,95584.69
2019-02-17T19:43:39.698Z,95589.69
2019-02-17T19:46:14.376Z,95591.80
2019-02-17T19:48:47.616Z,95592.12
2019-02-17T19:51:20.742Z,95591.96
2019-02-17T19:53:53.995Z,95594.53
2019-02-17T19:56:27.498Z,95593.67
2019-02-17T19:59:00.536Z,95588.95
2019-02-17T20:01:34.373Z,95594.66
2019-02-17T20:04:16.487Z,95592.30
2019-02-17T20:06:51.321Z,95591.39
2019-02-17T20:09:31.613Z,95595.52
2019-02-17T20:12:07.421Z,95594.52
2019-02-17T20:14:40.417Z,95602.45
2019-02-17T20:17:14.063Z,95598.50
2019-02-17T20:19:49.647Z,95596.96
2019-02-17T20:22:23.157Z,95594.87
2019-02-17T20:24:58.084Z,95596.84
2019-02-17T20:27:31.621Z,95593.63
2019-02-17T20:30:04.811Z,95594.15
2019-02-17T20:32:38.058Z,95595.59
2019-02-17T20:35:11.546Z,95593.55
2019-02-17T20:37:44.884Z,95593.75
2019-02-17T20:40:18.260Z,95592.08
2019-02-17T20:42:51.687Z,95591.12
2019-02-17T20:45:25.263Z,95587.17
2019-02-17T20:47:58.670Z,95596.14
2019-02-17T20:50:31.669Z,95590.26
2019-02-17T20:53:04.747Z,95591.77
2019-02-17T20:55:38.408Z,95591.98
2019-02-17T20:58:11.501Z,95593.17
2019-02-17T21:00:45.293Z,95594.23
2019-02-17T21:03:18.630Z,95599.45
2019-02-17T21:05:51.991Z,95601.28
2019-02-17T21:08:25.288Z,95596.56
2019-02-17T21:10:59.133Z,95595.20
2019-02-17T21:13:32.396Z,95593.48
2019-02-17T21:16:06.405Z,95593.36
2019-02-17T21:18:39.736Z,95590.77
2019-02-17T21:21:13.228Z,95598.47
2019-02-17T21:23:46.661Z,95598.48
2019-02-17T21:26:25.977Z,95598.24
2019-02-17T21:28:57.053Z,95596.13
2019-02-17T21:31:30.236Z,95592.12
2019-02-17T21:34:03.794Z,95601.80
2019-02-17T21:36:37.097Z,95597.72
2019-02-17T21:39:10.421Z,95602.39
2019-02-17T21:41:43.735Z,95602.26
2019-02-17T21:44:17.203Z,95599.35
2019-02-17T21:46:50.452Z,95596.31
2019-02-17T21:49:23.921Z,95600.75
2019-02-17T21:51:57.000Z,95595.83
2019-02-17T21:54:29.942Z,95598.38
2019-02-17T21:57:02.964Z,95602.21
2019-02-17T21:59:37.933Z,95601.62
2019-02-17T22:02:11.701Z,95603.70
2019-02-17T22:04:44.664Z,95605.58
2019-02-17T22:07:17.505Z,95608.47
2019-02-17T22:09:50.470Z,95607.77
2019-02-17T22:12:23.330Z,95599.91
2019-02-17T22:14:56.642Z,95606.96
2019-02-17T22:17:29.477Z,95614.03
2019-02-17T22:20:02.733Z,95613.06
2019-02-17T22:22:35.758Z,95613.16
2019-02-17T22:25:09.032Z,95612.78
2019-02-17T22:27:42.091Z,95613.75
2019-02-17T22:30:15.440Z,95608.58
2019-02-17T22:32:48.326Z,95606.71
2019-02-17T22:35:21.335Z,95603.55
2019-02-17T22:37:54.311Z,95602.93
2019-02-17T22:40:28.896Z,95606.23
2019-02-17T22:43:02.050Z,95610.77
2019-02-17T22:45:35.618Z,95617.03
2019-02-17T22:48:08.683Z,95609.09
2019-02-17T22:50:41.529Z,95604.00
2019-02-17T22:53:14.548Z,95607.95
2019-02-17T22:55:47.446Z,95611.23
2019-02-17T22:58:20.573Z,95616.97
2019-02-17T23:01:01.343Z,95612.33
2019-02-17T23:03:35.116Z,95607.38
2019-02-17T23:06:08.346Z,95608.58
2019-02-17T23:08:41.483Z,95609.62
2019-02-17T23:11:14.442Z,95610.29
2019-02-17T23:13:47.356Z,95609.28
2019-02-17T23:16:20.376Z,95606.38
2019-02-17T23:18:53.624Z,95604.38
2019-02-17T23:21:26.501Z,95599.98
2019-02-17T23:23:59.585Z,95602.81
2019-02-17T23:26:32.675Z,95605.59
2019-02-17T23:29:05.514Z,95599.13
2019-02-17T23:31:38.156Z,95600.98
2019-02-17T23:34:11.491Z,95597.30
2019-02-17T23:36:45.789Z,95597.94
2019-02-17T23:39:18.763Z,95598.28
2019-02-17T23:41:51.985Z,95598.94
2019-02-17T23:44:25.221Z,95603.63
2019-02-17T23:46:58.276Z,95604.08
2019-02-17T23:49:31.545Z,95596.64
2019-02-17T23:52:04.331Z,95604.06
2019-02-17T23:54:37.131Z,95603.69
2019-02-17T23:57:10.005Z,95605.06
2019-02-17T23:59:43.064Z,95601.69
